createdAt,value
2023-02-17T00:00:20.782Z,9.85
2023-02-17T00:02:48.949Z,11.13
2023-02-17T00:05:15.970Z,9.52
2023-02-17T00:07:42.843Z,9.95
2023-02-17T00:10:10.279Z,7.97
2023-02-17T00:12:37.193Z,6.90
2023-02-17T00:15:04.586Z,8.20
2023-02-17T00:17:32.124Z,14.70
2023-02-17T00:20:00.240Z,9.82
2023-02-17T00:22:27.246Z,12.18
2023-02-17T00:24:53.905Z,9.00
2023-02-17T00:27:20.843Z,7.90
2023-02-17T00:29:47.635Z,8.10
2023-02-17T00:32:14.417Z,9.50
2023-02-17T00:34:42.663Z,9.30
2023-02-17T00:37:10.962Z,10.10
2023-02-17T00:39:37.624Z,5.38
2023-02-17T00:42:04.386Z,8.90
2023-02-17T00:44:31.160Z,8.85
2023-02-17T00:46:57.842Z,8.85
2023-02-17T00:49:26.350Z,7.35
2023-02-17T00:51:53.694Z,6.75
2023-02-17T00:54:21.677Z,7.00
2023-02-17T00:56:48.498Z,4.95
2023-02-17T00:59:15.187Z,7.60
2023-02-17T01:01:42.235Z,8.15
2023-02-17T01:04:09.706Z,7.57
2023-02-17T01:06:38.362Z,7.20
2023-02-17T01:09:09.262Z,6.78
2023-02-17T01:11:39.209Z,6.45
2023-02-17T01:14:06.372Z,6.35
2023-02-17T01:16:35.377Z,8.98
2023-02-17T01:19:02.630Z,5.00
2023-02-17T01:21:30.737Z,7.43
2023-02-17T01:23:59.265Z,9.20
2023-02-17T01:26:28.018Z,8.18
2023-02-17T01:28:56.290Z,7.22
2023-02-17T01:31:23.262Z,10.25
2023-02-17T01:33:50.297Z,7.60
2023-02-17T01:36:19.077Z,6.13
2023-02-17T01:38:46.635Z,5.68
2023-02-17T01:41:14.966Z,7.68
2023-02-17T01:43:42.079Z,5.55
2023-02-17T01:46:11.065Z,7.00
2023-02-17T01:48:42.817Z,7.38
2023-02-17T01:51:14.568Z,11.00
2023-02-17T01:53:46.746Z,8.57
2023-02-17T01:56:16.628Z,10.43
2023-02-17T01:58:47.216Z,9.57
2023-02-17T02:01:16.578Z,9.55
2023-02-17T02:03:44.027Z,8.80
2023-02-17T02:06:16.077Z,10.48
2023-02-17T02:08:49.150Z,9.77
2023-02-17T02:11:16.077Z,9.60
2023-02-17T02:13:46.077Z,7.40
2023-02-17T02:16:20.968Z,9.13
2023-02-17T02:18:59.832Z,11.95
2023-02-17T02:21:53.689Z,6.97
2023-02-17T02:24:33.401Z,7.03
2023-02-17T02:27:30.125Z,7.53
2023-02-17T02:30:20.526Z,5.60
2023-02-17T02:32:58.268Z,10.75
2023-02-17T02:35:34.316Z,10.35
2023-02-17T02:40:40.155Z,6.75
2023-02-17T02:43:07.682Z,8.25
2023-02-17T02:45:35.462Z,6.90
2023-02-17T02:48:04.190Z,9.45
2023-02-17T02:50:54.386Z,9.18
2023-02-17T02:53:49.339Z,8.75
2023-02-17T02:56:27.511Z,9.25
2023-02-17T02:59:06.889Z,7.78
2023-02-17T03:01:41.884Z,15.60
2023-02-17T03:04:17.817Z,8.30
2023-02-17T03:06:49.108Z,8.88
2023-02-17T03:09:20.505Z,7.82
2023-02-17T03:11:48.216Z,8.45
2023-02-17T03:14:17.563Z,12.57
2023-02-17T03:16:44.662Z,9.73
2023-02-17T03:19:14.804Z,9.45
2023-02-17T03:21:46.184Z,10.85
2023-02-17T03:24:13.048Z,12.25
2023-02-17T03:26:39.818Z,11.10
2023-02-17T03:29:07.107Z,10.90
2023-02-17T03:31:34.698Z,7.85
2023-02-17T03:34:02.749Z,11.43
2023-02-17T03:36:30.926Z,10.43
2023-02-17T03:38:57.800Z,10.63
2023-02-17T03:41:24.499Z,15.85
2023-02-17T03:43:51.665Z,9.20
2023-02-17T03:46:18.698Z,7.93
2023-02-17T03:48:45.466Z,5.53
2023-02-17T03:51:14.793Z,5.35
2023-02-17T03:53:43.614Z,7.72
2023-02-17T03:56:10.737Z,5.32
2023-02-17T03:58:37.974Z,5.05
2023-02-17T04:01:05.151Z,6.65
2023-02-17T04:03:32.395Z,5.15
2023-02-17T04:05:59.369Z,4.38
2023-02-17T04:08:26.445Z,5.28
2023-02-17T04:10:55.766Z,7.03
2023-02-17T04:13:22.691Z,5.95
2023-02-17T04:15:49.735Z,4.95
2023-02-17T04:18:17.456Z,4.70
2023-02-17T04:20:44.445Z,4.53
2023-02-17T04:23:11.449Z,12.70
2023-02-17T04:25:38.387Z,5.75
2023-02-17T04:28:08.060Z,3.83
2023-02-17T04:30:35.164Z,4.63
2023-02-17T04:33:02.218Z,6.70
2023-02-17T04:35:29.216Z,5.65
2023-02-17T04:37:55.892Z,4.82
2023-02-17T04:40:23.158Z,6.97
2023-02-17T04:42:49.824Z,5.18
2023-02-17T04:45:17.920Z,6.88
2023-02-17T04:47:44.569Z,6.38
2023-02-17T04:50:12.015Z,8.90
2023-02-17T04:52:39.025Z,3.95
2023-02-17T04:55:06.739Z,5.35
2023-02-17T04:57:33.810Z,6.22
2023-02-17T05:00:00.484Z,6.20
2023-02-17T05:02:29.059Z,4.72
2023-02-17T05:04:55.686Z,5.13
2023-02-17T05:07:23.384Z,5.45
2023-02-17T05:09:49.999Z,7.20
2023-02-17T05:12:16.957Z,4.47
2023-02-17T05:14:43.556Z,5.97
2023-02-17T05:17:10.389Z,6.03
2023-02-17T05:19:38.376Z,4.50
2023-02-17T05:22:05.096Z,4.47
2023-02-17T05:24:32.065Z,5.15
2023-02-17T05:26:58.683Z,3.38
2023-02-17T05:29:25.476Z,5.05
2023-02-17T05:31:52.164Z,7.00
2023-02-17T05:34:19.057Z,5.55
2023-02-17T05:36:50.309Z,4.97
2023-02-17T05:39:17.082Z,3.75
2023-02-17T05:41:43.685Z,5.75
2023-02-17T05:44:10.381Z,6.70
2023-02-17T05:46:37.130Z,3.72
2023-02-17T05:49:03.788Z,4.03
2023-02-17T05:51:30.508Z,3.75
2023-02-17T05:53:58.910Z,4.10
2023-02-17T05:56:25.652Z,2.45
2023-02-17T05:58:52.388Z,3.90
2023-02-17T06:01:19.228Z,3.90
2023-02-17T06:03:46.216Z,4.20
2023-02-17T06:06:12.866Z,4.20
2023-02-17T06:08:40.822Z,5.07
2023-02-17T06:11:09.376Z,3.85
2023-02-17T06:13:36.434Z,8.35
2023-02-17T06:16:03.865Z,12.45
2023-02-17T06:18:30.706Z,10.93
2023-02-17T06:20:57.920Z,11.00
2023-02-17T06:23:25.461Z,16.40
2023-02-17T06:25:52.347Z,15.57
2023-02-17T06:28:20.320Z,10.73
2023-02-17T06:30:47.004Z,12.98
2023-02-17T06:33:13.669Z,8.10
2023-02-17T06:35:40.553Z,10.32
2023-02-17T06:38:07.595Z,14.25
2023-02-17T06:40:34.287Z,18.10
2023-02-17T06:43:01.047Z,10.82
2023-02-17T06:45:29.140Z,14.43
2023-02-17T06:47:55.866Z,13.13
2023-02-17T06:50:22.731Z,12.38
2023-02-17T06:52:50.112Z,9.57
2023-02-17T06:55:17.083Z,11.63
2023-02-17T06:57:44.179Z,13.93
2023-02-17T07:00:11.670Z,17.23
2023-02-17T07:02:40.610Z,13.20
2023-02-17T07:05:08.216Z,12.52
2023-02-17T07:07:35.211Z,10.82
2023-02-17T07:10:03.297Z,9.10
2023-02-17T07:12:30.106Z,8.88
2023-02-17T07:14:56.947Z,3.88
2023-02-17T07:17:23.863Z,6.78
2023-02-17T07:19:51.853Z,6.95
2023-02-17T07:22:18.670Z,4.20
2023-02-17T07:24:45.622Z,5.85
2023-02-17T07:27:12.277Z,3.28
2023-02-17T07:29:38.971Z,6.00
2023-02-17T07:32:07.201Z,8.48
2023-02-17T07:34:33.868Z,7.18
2023-02-17T07:37:01.921Z,8.13
2023-02-17T07:39:28.584Z,3.88
2023-02-17T07:42:00.657Z,5.68
2023-02-17T07:44:27.987Z,5.13
2023-02-17T07:46:55.151Z,6.55
2023-02-17T07:53:50.784Z,4.78
2023-02-17T07:56:19.538Z,3.47
2023-02-17T07:58:46.307Z,7.05
2023-02-17T08:01:14.695Z,9.68
2023-02-17T08:03:41.850Z,3.70
2023-02-17T08:06:09.933Z,1.98
2023-02-17T08:08:55.697Z,8.07
2023-02-17T08:11:44.004Z,6.40
2023-02-17T08:14:13.197Z,6.50
2023-02-17T08:16:40.067Z,3.72
2023-02-17T08:19:07.686Z,4.18
2023-02-17T08:21:34.784Z,10.07
2023-02-17T08:24:01.450Z,4.85
2023-02-17T08:26:29.719Z,7.05
2023-02-17T08:28:56.592Z,6.53
2023-02-17T08:31:26.367Z,3.75
2023-02-17T08:33:53.712Z,4.65
2023-02-17T08:36:22.266Z,5.20
2023-02-17T08:38:51.227Z,4.50
2023-02-17T08:41:20.917Z,4.32
2023-02-17T08:43:50.009Z,3.42
2023-02-17T08:46:18.831Z,5.28
2023-02-17T08:48:46.011Z,4.63
2023-02-17T08:51:14.253Z,5.47
2023-02-17T08:53:40.931Z,3.05
2023-02-17T08:56:08.420Z,8.07
2023-02-17T08:58:38.873Z,7.22
2023-02-17T09:01:07.036Z,5.20
2023-02-17T09:03:34.076Z,4.18
2023-02-17T09:06:00.816Z,4.13
2023-02-17T09:08:27.512Z,4.50
2023-02-17T09:10:54.283Z,6.38
2023-02-17T09:13:21.065Z,7.18
2023-02-17T09:15:47.991Z,5.13
2023-02-17T09:18:16.599Z,6.32
2023-02-17T09:20:43.341Z,8.82
2023-02-17T09:23:10.182Z,4.72
2023-02-17T09:25:36.999Z,5.65
2023-02-17T09:28:04.030Z,3.25
2023-02-17T09:30:31.244Z,5.68
2023-02-17T09:32:58.951Z,5.40
2023-02-17T09:35:27.570Z,5.88
2023-02-17T09:37:54.431Z,6.75
2023-02-17T09:40:25.336Z,4.07
2023-02-17T09:42:52.043Z,6.18
2023-02-17T09:45:25.610Z,6.07
2023-02-17T09:47:55.084Z,3.15
2023-02-17T09:50:26.635Z,8.38
2023-02-17T09:52:59.728Z,6.88
2023-02-17T09:55:30.842Z,1.73
2023-02-17T09:58:06.126Z,4.65
2023-02-17T10:00:35.723Z,7.40
2023-02-17T10:03:10.270Z,6.22
2023-02-17T10:08:16.945Z,9.80
2023-02-17T10:10:51.597Z,8.52
2023-02-17T10:13:21.980Z,5.70
2023-02-17T10:15:51.620Z,5.80
2023-02-17T10:18:26.434Z,5.30
2023-02-17T10:20:59.816Z,3.47
2023-02-17T10:23:29.440Z,5.50
2023-02-17T10:26:11.247Z,8.93
2023-02-17T10:28:50.785Z,7.15
2023-02-17T10:31:32.025Z,7.78
2023-02-17T10:34:03.985Z,7.10
2023-02-17T10:36:42.447Z,11.93
2023-02-17T10:39:14.583Z,5.95
2023-02-17T10:41:46.390Z,4.80
2023-02-17T10:44:17.694Z,7.32
2023-02-17T10:46:44.876Z,4.72
2023-02-17T10:49:20.377Z,3.92
2023-02-17T10:51:47.079Z,4.10
2023-02-17T10:54:25.518Z,3.40
2023-02-17T10:56:56.032Z,4.50
2023-02-17T10:59:27.975Z,3.97
2023-02-17T11:01:58.367Z,7.25
2023-02-17T11:04:25.122Z,8.13
2023-02-17T11:06:55.375Z,4.38
2023-02-17T11:09:33.273Z,7.15
2023-02-17T11:12:03.054Z,13.93
2023-02-17T11:14:32.064Z,10.02
2023-02-17T11:17:00.697Z,3.95
2023-02-17T11:19:29.504Z,7.57
2023-02-17T11:21:59.048Z,5.60
2023-02-17T11:24:28.837Z,3.58
2023-02-17T11:26:59.156Z,8.00
2023-02-17T11:29:26.784Z,10.38
2023-02-17T11:31:55.999Z,3.78
2023-02-17T11:34:25.256Z,5.75
2023-02-17T11:36:59.344Z,6.75
2023-02-17T11:39:27.891Z,5.78
2023-02-17T11:41:54.680Z,4.97
2023-02-17T11:44:25.805Z,6.55
2023-02-17T11:47:00.776Z,2.70
2023-02-17T11:49:44.039Z,3.67
2023-02-17T11:52:33.001Z,6.13
2023-02-17T11:55:15.721Z,5.05
2023-02-17T11:57:45.840Z,4.72
2023-02-17T12:00:17.842Z,4.38
2023-02-17T12:02:59.792Z,3.65
2023-02-17T12:05:35.806Z,8.55
2023-02-17T12:08:15.046Z,3.88
2023-02-17T12:11:00.508Z,6.28
2023-02-17T12:13:37.197Z,3.92
2023-02-17T12:16:18.592Z,4.22
2023-02-17T12:18:54.051Z,4.95
2023-02-17T12:21:43.879Z,3.17
2023-02-17T12:24:29.631Z,5.47
2023-02-17T12:27:06.165Z,3.90
2023-02-17T12:29:51.991Z,6.53
2023-02-17T12:32:33.663Z,3.85
2023-02-17T12:35:12.905Z,3.80
2023-02-17T12:37:48.749Z,2.28
2023-02-17T12:40:28.382Z,3.58
2023-02-17T12:43:00.478Z,4.97
2023-02-17T12:45:35.627Z,7.88
2023-02-17T12:48:07.033Z,2.22
2023-02-17T12:50:38.274Z,3.03
2023-02-17T12:53:13.178Z,2.50
2023-02-17T12:55:48.536Z,4.28
2023-02-17T12:58:21.514Z,3.40
2023-02-17T13:00:52.515Z,1.85
2023-02-17T13:03:19.496Z,2.83
2023-02-17T13:05:52.410Z,3.80
2023-02-17T13:08:23.147Z,4.03
2023-02-17T13:11:01.030Z,1.98
2023-02-17T13:13:31.492Z,5.47
2023-02-17T13:16:05.461Z,3.55
2023-02-17T13:18:34.177Z,2.63
2023-02-17T13:21:14.671Z,2.63
2023-02-17T13:23:43.003Z,2.35
2023-02-17T13:26:33.861Z,4.00
2023-02-17T13:29:17.996Z,1.58
2023-02-17T13:31:48.063Z,4.10
2023-02-17T13:34:25.709Z,3.38
2023-02-17T13:36:52.606Z,2.45
2023-02-17T13:39:35.834Z,3.65
2023-02-17T13:42:03.196Z,2.42
2023-02-17T13:44:34.041Z,3.08
2023-02-17T13:47:04.321Z,3.78
2023-02-17T13:49:33.951Z,2.25
2023-02-17T13:52:09.156Z,3.38
2023-02-17T13:54:36.072Z,3.28
2023-02-17T13:57:02.794Z,3.70
2023-02-17T13:59:31.652Z,2.10
2023-02-17T14:01:58.503Z,2.47
2023-02-17T14:04:28.068Z,5.68
2023-02-17T14:06:58.123Z,2.55
2023-02-17T14:09:26.793Z,6.78
2023-02-17T14:11:55.316Z,2.15
2023-02-17T14:14:24.771Z,2.35
2023-02-17T14:17:26.726Z,2.63
2023-02-17T14:19:53.415Z,2.08
2023-02-17T14:22:26.385Z,2.38
2023-02-17T14:25:03.116Z,2.53
2023-02-17T14:27:41.349Z,0.65
2023-02-17T14:30:15.827Z,2.92
2023-02-17T14:32:45.232Z,3.75
2023-02-17T14:35:30.322Z,2.08
2023-02-17T14:38:07.855Z,3.08
2023-02-17T14:40:35.415Z,1.73
2023-02-17T14:43:02.280Z,2.53
2023-02-17T14:45:30.702Z,3.15
2023-02-17T14:48:00.431Z,4.28
2023-02-17T14:50:30.258Z,2.90
2023-02-17T23:02:34.192Z,2.80
